McLeod, MT

8:17 PM MDT on September 20, 2014 (GMT -0600)
Mission | Change Station
CLOSE
Current Station
Airport
Location: Livingston,
Elevation: 4656 ft
Nearby Weather Stations

Elev 4656 ft 45.70 °N, 110.44 °W | Updated 24 minutes ago

Clear
Clear
61 °F
Feels Like 61 °F
N
8
Wind Variable Wind from ESE

Today
High -- | Low -- °F
--% Chance of Precip.
Yesterday
High -- | Low -- °F
Precip. -- in
7:05 AM 7:22 PM
Waning Crescent, 9% visible
Pressure 30.18 in
Visibility 10.0 miles
Clouds Clear
Dew Point 43 °F
Humidity 52%
Rainfall 0.00 in
Snow Depth 0 in , 0 in , 1 in
UV 0 out of 12
Pollen 5.30 out of 12
Air Quality Not available.
Flu Activity Not available.
METAR KLVM 210153Z AUTO 12007KT 10SM CLR 16/06 A3023 RMK AO2 SLP219 T01610061

More Conditions Fewer Conditions

Pressure 30.18 in
Visibility 10.0 miles
Clouds Clear
Dew Point 43 °F
Humidity 52%
Rainfall 0.00 in
Snow Depth 0 in , 0 in , 1 in
UV 0 out of 12
Pollen 5.30 out of 12
Air Quality Not available.
Flu Activity Not available.
METAR KLVM 210153Z AUTO 12007KT 10SM CLR 16/06 A3023 RMK AO2 SLP219 T01610061

More Conditions Fewer Conditions

10-Day Weather Forecast

Almanac

Astronomy

Sep. 20, 2014 Rise Set
Actual Time 7:05 AM MDT 7:22 PM MDT
Civil Twilight 6:36 AM MDT 7:52 PM MDT
Nautical Twilight 6:01 AM MDT 8:26 PM MDT
Astronomical Twilight 5:25 AM MDT 9:02 PM MDT
Moon 3:40 AM MDT (9/20) 5:34 PM MDT (9/20)
Length of Visible Light 13h 15m
Length of Day
12h 16m
Tomorrow will be 3m 10s shorter.
Waning Crescent, 9% of the Moon is Illuminated
Today
Waning Crescent
Sep 24
New
Oct 1
First Quarter
Oct 8
Full
Oct 15
Last Quarter

Today's Extremes

State Highs State Lows

Community

WunderPhotos

Upload Photos

1,755,032 photos uploaded!

WunderBlogs® & News

Nearby

Snow Depth

Station Depth Elevation
Burnt Mountain 0 in 5880 ft
Short Creek 0 in 7000 ft
Emery Creek 1 in 4350 ft
Hoodoo Basin 0 in 6050 ft
Tizer Basin 0 in 6840 ft

Earthquake Activity

City Distance Mag. Time & Date
No recent earthquake activity has been reported nearby.
Minimum magnitude displayed is 2.5.

Coastal Water Temperatures

Place Temperature
No Stations Reporting

Nearby Weather Stations